sensor_id;sensor_type;location;lat;lon;timestamp;temperature;humidity
15103;DHT22;7652;53.584;9.998;2023-05-10T00:00:39;15.20;98.60
15103;DHT22;7652;53.584;9.998;2023-05-10T00:04:00;15.20;99.00
15103;DHT22;7652;53.584;9.998;2023-05-10T00:07:22;15.20;98.90
15103;DHT22;7652;53.584;9.998;2023-05-10T00:10:43;15.20;99.10
15103;DHT22;7652;53.584;9.998;2023-05-10T00:14:05;15.20;99.40
15103;DHT22;7652;53.584;9.998;2023-05-10T00:17:28;15.10;99.60
15103;DHT22;7652;53.584;9.998;2023-05-10T00:20:49;15.10;99.90
15103;DHT22;7652;53.584;9.998;2023-05-10T00:24:11;15.10;99.90
15103;DHT22;7652;53.584;9.998;2023-05-10T00:27:32;15.00;99.90
15103;DHT22;7652;53.584;9.998;2023-05-10T00:30:54;15.00;99.90
15103;DHT22;7652;53.584;9.998;2023-05-10T00:34:16;15.00;99.90
15103;DHT22;7652;53.584;9.998;2023-05-10T00:37:38;15.00;99.90
15103;DHT22;7652;53.584;9.998;2023-05-10T00:40:59;14.90;99.90
15103;DHT22;7652;53.584;9.998;2023-05-10T00:44:20;14.90;99.90
15103;DHT22;7652;53.584;9.998;2023-05-10T00:47:42;14.90;99.90
15103;DHT22;7652;53.584;9.998;2023-05-10T00:51:05;14.90;99.90
15103;DHT22;7652;53.584;9.998;2023-05-10T00:54:26;14.90;99.90
15103;DHT22;7652;53.584;9.998;2023-05-10T00:57:48;14.80;99.90
15103;DHT22;7652;53.584;9.998;2023-05-10T01:01:09;14.80;99.90
15103;DHT22;7652;53.584;9.998;2023-05-10T01:04:32;14.80;99.90
15103;DHT22;7652;53.584;9.998;2023-05-10T01:07:56;14.80;99.90
15103;DHT22;7652;53.584;9.998;2023-05-10T01:11:17;14.70;99.90
15103;DHT22;7652;53.584;9.998;2023-05-10T01:14:39;14.70;99.90
15103;DHT22;7652;53.584;9.998;2023-05-10T01:18:02;14.60;99.90
15103;DHT22;7652;53.584;9.998;2023-05-10T01:21:29;14.50;99.90
15103;DHT22;7652;53.584;9.998;2023-05-10T01:25:15;14.50;99.90
15103;DHT22;7652;53.584;9.998;2023-05-10T01:28:58;14.50;99.90
15103;DHT22;7652;53.584;9.998;2023-05-10T01:32:29;14.40;99.90
15103;DHT22;7652;53.584;9.998;2023-05-10T01:36:08;14.40;99.90
15103;DHT22;7652;53.584;9.998;2023-05-10T01:39:39;14.30;99.90
15103;DHT22;7652;53.584;9.998;2023-05-10T01:43:07;14.30;99.90
15103;DHT22;7652;53.584;9.998;2023-05-10T01:46:35;14.20;99.90
15103;DHT22;7652;53.584;9.998;2023-05-10T01:50:02;14.20;99.90
15103;DHT22;7652;53.584;9.998;2023-05-10T01:53:23;14.20;99.90
15103;DHT22;7652;53.584;9.998;2023-05-10T01:56:50;14.10;99.90
15103;DHT22;7652;53.584;9.998;2023-05-10T02:00:14;14.10;99.90
15103;DHT22;7652;53.584;9.998;2023-05-10T02:03:38;14.10;99.90
15103;DHT22;7652;53.584;9.998;2023-05-10T02:07:03;14.10;99.90
15103;DHT22;7652;53.584;9.998;2023-05-10T02:10:25;14.00;99.90
15103;DHT22;7652;53.584;9.998;2023-05-10T02:13:49;14.00;99.90
15103;DHT22;7652;53.584;9.998;2023-05-10T02:17:11;13.90;99.90
15103;DHT22;7652;53.584;9.998;2023-05-10T02:20:34;13.90;99.90
15103;DHT22;7652;53.584;9.998;2023-05-10T02:23:58;13.80;99.90
15103;DHT22;7652;53.584;9.998;2023-05-10T02:27:20;13.80;99.90
15103;DHT22;7652;53.584;9.998;2023-05-10T02:30:43;13.80;99.90
15103;DHT22;7652;53.584;9.998;2023-05-10T02:34:06;13.80;99.90
15103;DHT22;7652;53.584;9.998;2023-05-10T02:37:29;13.70;99.90
15103;DHT22;7652;53.584;9.998;2023-05-10T02:40:53;13.60;99.90
15103;DHT22;7652;53.584;9.998;2023-05-10T02:44:18;13.60;99.90
15103;DHT22;7652;53.584;9.998;2023-05-10T02:47:40;13.60;99.90
15103;DHT22;7652;53.584;9.998;2023-05-10T02:51:05;13.60;99.90
15103;DHT22;7652;53.584;9.998;2023-05-10T02:54:30;13.60;99.90
15103;DHT22;7652;53.584;9.998;2023-05-10T02:58:05;13.60;99.90
15103;DHT22;7652;53.584;9.998;2023-05-10T03:01:26;13.50;99.90
15103;DHT22;7652;53.584;9.998;2023-05-10T03:04:48;13.50;99.90
15103;DHT22;7652;53.584;9.998;2023-05-10T03:08:09;13.40;99.90
15103;DHT22;7652;53.584;9.998;2023-05-10T03:11:43;13.40;99.90
15103;DHT22;7652;53.584;9.998;2023-05-10T03:15:16;13.50;99.90
15103;DHT22;7652;53.584;9.998;2023-05-10T03:18:43;13.50;99.90
15103;DHT22;7652;53.584;9.998;2023-05-10T03:22:09;13.40;99.90
15103;DHT22;7652;53.584;9.998;2023-05-10T03:25:31;13.40;99.90
15103;DHT22;7652;53.584;9.998;2023-05-10T03:28:55;13.40;99.90
15103;DHT22;7652;53.584;9.998;2023-05-10T03:32:18;13.50;99.90
15103;DHT22;7652;53.584;9.998;2023-05-10T03:35:40;13.30;99.90
15103;DHT22;7652;53.584;9.998;2023-05-10T03:39:01;13.30;99.90
15103;DHT22;7652;53.584;9.998;2023-05-10T03:42:23;13.30;99.90
15103;DHT22;7652;53.584;9.998;2023-05-10T03:45:45;13.20;99.90
15103;DHT22;7652;53.584;9.998;2023-05-10T03:49:08;13.20;99.90
15103;DHT22;7652;53.584;9.998;2023-05-10T03:52:29;13.20;99.90
15103;DHT22;7652;53.584;9.998;2023-05-10T03:55:51;13.20;99.90
15103;DHT22;7652;53.584;9.998;2023-05-10T03:59:13;13.20;99.90
15103;DHT22;7652;53.584;9.998;2023-05-10T04:02:34;13.10;99.90
15103;DHT22;7652;53.584;9.998;2023-05-10T04:06:01;13.20;99.90
15103;DHT22;7652;53.584;9.998;2023-05-10T04:09:23;13.20;99.90
15103;DHT22;7652;53.584;9.998;2023-05-10T04:12:44;13.20;99.90
15103;DHT22;7652;53.584;9.998;2023-05-10T04:16:05;13.30;99.90
15103;DHT22;7652;53.584;9.998;2023-05-10T04:19:29;13.40;99.90
15103;DHT22;7652;53.584;9.998;2023-05-10T04:22:52;13.30;99.90
15103;DHT22;7652;53.584;9.998;2023-05-10T04:26:14;13.30;99.90
15103;DHT22;7652;53.584;9.998;2023-05-10T04:29:36;13.40;99.90
15103;DHT22;7652;53.584;9.998;2023-05-10T04:32:58;13.40;99.90
15103;DHT22;7652;53.584;9.998;2023-05-10T04:36:19;13.40;99.90
15103;DHT22;7652;53.584;9.998;2023-05-10T04:39:42;13.40;99.90
15103;DHT22;7652;53.584;9.998;2023-05-10T04:43:04;13.50;99.90
15103;DHT22;7652;53.584;9.998;2023-05-10T04:46:25;13.50;99.90
15103;DHT22;7652;53.584;9.998;2023-05-10T04:49:46;13.50;99.90
15103;DHT22;7652;53.584;9.998;2023-05-10T04:53:08;13.60;99.90
15103;DHT22;7652;53.584;9.998;2023-05-10T04:56:31;13.60;99.90
15103;DHT22;7652;53.584;9.998;2023-05-10T04:59:52;13.60;99.90
15103;DHT22;7652;53.584;9.998;2023-05-10T05:03:13;13.80;99.90
15103;DHT22;7652;53.584;9.998;2023-05-10T05:06:35;13.80;99.90
15103;DHT22;7652;53.584;9.998;2023-05-10T05:09:57;13.80;99.90
15103;DHT22;7652;53.584;9.998;2023-05-10T05:13:19;14.00;99.90
15103;DHT22;7652;53.584;9.998;2023-05-10T05:16:41;14.00;99.90
15103;DHT22;7652;53.584;9.998;2023-05-10T05:20:03;14.20;99.90
15103;DHT22;7652;53.584;9.998;2023-05-10T05:23:24;14.20;99.90
15103;DHT22;7652;53.584;9.998;2023-05-10T05:26:46;14.20;99.90
15103;DHT22;7652;53.584;9.998;2023-05-10T05:30:09;14.50;99.90
15103;DHT22;7652;53.584;9.998;2023-05-10T05:33:31;14.60;99.90
15103;DHT22;7652;53.584;9.998;2023-05-10T05:36:52;14.90;99.90
15103;DHT22;7652;53.584;9.998;2023-05-10T05:40:14;15.20;99.90
15103;DHT22;7652;53.584;9.998;2023-05-10T05:43:35;15.50;99.90
15103;DHT22;7652;53.584;9.998;2023-05-10T05:46:59;15.90;99.90
15103;DHT22;7652;53.584;9.998;2023-05-10T05:50:20;16.10;99.90
15103;DHT22;7652;53.584;9.998;2023-05-10T05:53:42;16.60;99.90
15103;DHT22;7652;53.584;9.998;2023-05-10T05:57:03;17.00;99.90
15103;DHT22;7652;53.584;9.998;2023-05-10T06:00:25;17.20;99.90
15103;DHT22;7652;53.584;9.998;2023-05-10T06:03:47;17.30;99.90
15103;DHT22;7652;53.584;9.998;2023-05-10T06:07:12;17.40;99.90
15103;DHT22;7652;53.584;9.998;2023-05-10T06:10:33;17.40;99.90
15103;DHT22;7652;53.584;9.998;2023-05-10T06:13:54;17.60;99.90
15103;DHT22;7652;53.584;9.998;2023-05-10T06:17:15;17.70;99.90
15103;DHT22;7652;53.584;9.998;2023-05-10T06:20:38;17.70;99.90
15103;DHT22;7652;53.584;9.998;2023-05-10T06:24:01;17.70;99.90
15103;DHT22;7652;53.584;9.998;2023-05-10T06:27:23;18.20;99.90
15103;DHT22;7652;53.584;9.998;2023-05-10T06:30:45;18.60;99.90
15103;DHT22;7652;53.584;9.998;2023-05-10T06:34:06;18.70;99.90
15103;DHT22;7652;53.584;9.998;2023-05-10T06:37:30;18.40;99.90
15103;DHT22;7652;53.584;9.998;2023-05-10T06:40:51;18.20;99.90
15103;DHT22;7652;53.584;9.998;2023-05-10T06:44:13;17.90;99.90
15103;DHT22;7652;53.584;9.998;2023-05-10T06:47:34;17.20;99.90
15103;DHT22;7652;53.584;9.998;2023-05-10T06:50:58;17.00;99.90
15103;DHT22;7652;53.584;9.998;2023-05-10T06:54:21;17.00;99.90
15103;DHT22;7652;53.584;9.998;2023-05-10T06:57:43;16.90;99.90
15103;DHT22;7652;53.584;9.998;2023-05-10T07:01:05;17.10;99.90
15103;DHT22;7652;53.584;9.998;2023-05-10T07:04:27;17.30;99.90
15103;DHT22;7652;53.584;9.998;2023-05-10T07:07:48;17.30;99.90
15103;DHT22;7652;53.584;9.998;2023-05-10T07:11:11;17.40;99.90
15103;DHT22;7652;53.584;9.998;2023-05-10T07:14:32;17.50;99.90
15103;DHT22;7652;53.584;9.998;2023-05-10T07:17:54;17.60;99.90
15103;DHT22;7652;53.584;9.998;2023-05-10T07:21:16;17.60;99.90
15103;DHT22;7652;53.584;9.998;2023-05-10T07:24:38;17.80;99.90
15103;DHT22;7652;53.584;9.998;2023-05-10T07:28:01;17.80;99.90
15103;DHT22;7652;53.584;9.998;2023-05-10T07:31:22;17.50;99.90
15103;DHT22;7652;53.584;9.998;2023-05-10T07:34:43;17.40;99.90
15103;DHT22;7652;53.584;9.998;2023-05-10T07:38:05;17.50;99.90
15103;DHT22;7652;53.584;9.998;2023-05-10T07:41:26;17.50;99.90
15103;DHT22;7652;53.584;9.998;2023-05-10T07:44:49;17.70;99.90
15103;DHT22;7652;53.584;9.998;2023-05-10T07:48:11;17.90;99.90
15103;DHT22;7652;53.584;9.998;2023-05-10T07:51:32;18.00;99.90
15103;DHT22;7652;53.584;9.998;2023-05-10T07:54:53;18.00;99.90
15103;DHT22;7652;53.584;9.998;2023-05-10T07:58:16;18.10;99.90
15103;DHT22;7652;53.584;9.998;2023-05-10T08:01:40;18.00;99.90
15103;DHT22;7652;53.584;9.998;2023-05-10T08:05:01;17.90;99.90
15103;DHT22;7652;53.584;9.998;2023-05-10T08:08:23;18.00;99.90
15103;DHT22;7652;53.584;9.998;2023-05-10T08:11:44;18.00;99.90
15103;DHT22;7652;53.584;9.998;2023-05-10T08:15:06;17.60;99.90
15103;DHT22;7652;53.584;9.998;2023-05-10T08:18:29;17.30;99.90
15103;DHT22;7652;53.584;9.998;2023-05-10T08:21:51;17.50;99.90
15103;DHT22;7652;53.584;9.998;2023-05-10T08:25:13;17.50;99.90
15103;DHT22;7652;53.584;9.998;2023-05-10T08:28:35;17.50;99.90
15103;DHT22;7652;53.584;9.998;2023-05-10T08:31:56;17.50;99.90
15103;DHT22;7652;53.584;9.998;2023-05-10T08:35:18;17.70;99.90
15103;DHT22;7652;53.584;9.998;2023-05-10T08:38:40;17.80;99.90
15103;DHT22;7652;53.584;9.998;2023-05-10T08:42:04;18.00;99.90
15103;DHT22;7652;53.584;9.998;2023-05-10T08:45:27;17.90;99.90
15103;DHT22;7652;53.584;9.998;2023-05-10T08:48:53;18.00;99.90
15103;DHT22;7652;53.584;9.998;2023-05-10T08:52:17;17.90;99.90
15103;DHT22;7652;53.584;9.998;2023-05-10T08:55:40;17.90;99.90
15103;DHT22;7652;53.584;9.998;2023-05-10T08:59:03;18.20;99.90
15103;DHT22;7652;53.584;9.998;2023-05-10T09:02:25;18.10;99.90
15103;DHT22;7652;53.584;9.998;2023-05-10T09:05:47;18.00;99.90
15103;DHT22;7652;53.584;9.998;2023-05-10T09:09:11;18.10;99.90
15103;DHT22;7652;53.584;9.998;2023-05-10T09:12:33;18.00;99.90
15103;DHT22;7652;53.584;9.998;2023-05-10T09:15:54;18.10;99.90
15103;DHT22;7652;53.584;9.998;2023-05-10T09:19:21;18.40;99.90
15103;DHT22;7652;53.584;9.998;2023-05-10T09:22:42;18.50;99.90
15103;DHT22;7652;53.584;9.998;2023-05-10T09:26:05;18.40;99.90
15103;DHT22;7652;53.584;9.998;2023-05-10T09:29:38;18.10;99.90
15103;DHT22;7652;53.584;9.998;2023-05-10T09:33:01;17.90;99.90
15103;DHT22;7652;53.584;9.998;2023-05-10T09:36:23;17.90;99.90
15103;DHT22;7652;53.584;9.998;2023-05-10T09:39:44;18.10;99.90
15103;DHT22;7652;53.584;9.998;2023-05-10T09:43:08;18.10;99.90
15103;DHT22;7652;53.584;9.998;2023-05-10T09:46:35;18.00;99.90
15103;DHT22;7652;53.584;9.998;2023-05-10T09:49:57;17.90;99.90
15103;DHT22;7652;53.584;9.998;2023-05-10T09:53:23;17.80;99.90
15103;DHT22;7652;53.584;9.998;2023-05-10T09:56:44;17.60;99.90
15103;DHT22;7652;53.584;9.998;2023-05-10T10:00:08;17.50;99.90
15103;DHT22;7652;53.584;9.998;2023-05-10T10:03:31;17.40;99.90
15103;DHT22;7652;53.584;9.998;2023-05-10T10:07:00;17.20;99.90
15103;DHT22;7652;53.584;9.998;2023-05-10T10:10:23;17.10;99.90
15103;DHT22;7652;53.584;9.998;2023-05-10T10:13:44;16.80;99.90
15103;DHT22;7652;53.584;9.998;2023-05-10T10:17:07;16.60;99.90
15103;DHT22;7652;53.584;9.998;2023-05-10T10:20:29;16.40;99.90
15103;DHT22;7652;53.584;9.998;2023-05-10T10:23:51;16.20;99.90
15103;DHT22;7652;53.584;9.998;2023-05-10T10:27:21;16.00;99.90
15103;DHT22;7652;53.584;9.998;2023-05-10T10:30:48;15.90;99.90
15103;DHT22;7652;53.584;9.998;2023-05-10T10:34:22;15.70;99.90
15103;DHT22;7652;53.584;9.998;2023-05-10T10:37:47;15.60;99.90
15103;DHT22;7652;53.584;9.998;2023-05-10T10:41:10;15.50;99.90
15103;DHT22;7652;53.584;9.998;2023-05-10T10:44:37;15.40;99.90
15103;DHT22;7652;53.584;9.998;2023-05-10T10:48:20;15.30;99.90
15103;DHT22;7652;53.584;9.998;2023-05-10T10:52:24;15.20;99.90
15103;DHT22;7652;53.584;9.998;2023-05-10T10:55:48;15.10;99.90
15103;DHT22;7652;53.584;9.998;2023-05-10T10:59:10;15.20;99.90
15103;DHT22;7652;53.584;9.998;2023-05-10T11:02:42;15.10;99.90
15103;DHT22;7652;53.584;9.998;2023-05-10T11:06:06;15.30;99.90
15103;DHT22;7652;53.584;9.998;2023-05-10T11:09:39;15.50;99.90
15103;DHT22;7652;53.584;9.998;2023-05-10T11:13:01;15.50;99.90
15103;DHT22;7652;53.584;9.998;2023-05-10T11:16:24;15.40;99.90
15103;DHT22;7652;53.584;9.998;2023-05-10T11:20:02;15.50;99.90
15103;DHT22;7652;53.584;9.998;2023-05-10T11:23:29;15.30;99.90
15103;DHT22;7652;53.584;9.998;2023-05-10T11:26:53;15.40;99.90
15103;DHT22;7652;53.584;9.998;2023-05-10T11:30:15;15.20;99.90
15103;DHT22;7652;53.584;9.998;2023-05-10T11:33:42;15.30;99.90
15103;DHT22;7652;53.584;9.998;2023-05-10T11:37:04;15.50;99.90
15103;DHT22;7652;53.584;9.998;2023-05-10T11:40:26;15.60;99.90
15103;DHT22;7652;53.584;9.998;2023-05-10T11:43:49;15.60;99.90
15103;DHT22;7652;53.584;9.998;2023-05-10T11:47:12;15.30;99.90
15103;DHT22;7652;53.584;9.998;2023-05-10T11:50:33;15.50;99.90
15103;DHT22;7652;53.584;9.998;2023-05-10T11:53:56;15.40;99.90
15103;DHT22;7652;53.584;9.998;2023-05-10T11:57:18;15.50;99.90
15103;DHT22;7652;53.584;9.998;2023-05-10T12:00:41;15.60;99.90
15103;DHT22;7652;53.584;9.998;2023-05-10T12:04:03;15.50;99.90
15103;DHT22;7652;53.584;9.998;2023-05-10T12:07:26;15.40;99.90
15103;DHT22;7652;53.584;9.998;2023-05-10T12:10:47;15.30;99.90
15103;DHT22;7652;53.584;9.998;2023-05-10T12:14:09;15.50;99.90
15103;DHT22;7652;53.584;9.998;2023-05-10T12:17:32;15.60;99.90
15103;DHT22;7652;53.584;9.998;2023-05-10T12:20:54;15.60;99.90
15103;DHT22;7652;53.584;9.998;2023-05-10T12:24:15;15.70;99.90
15103;DHT22;7652;53.584;9.998;2023-05-10T12:27:38;15.60;99.90
15103;DHT22;7652;53.584;9.998;2023-05-10T12:30:59;15.50;99.90
15103;DHT22;7652;53.584;9.998;2023-05-10T12:34:31;15.50;99.90
15103;DHT22;7652;53.584;9.998;2023-05-10T12:37:53;15.70;99.90
15103;DHT22;7652;53.584;9.998;2023-05-10T12:41:15;15.80;99.90
15103;DHT22;7652;53.584;9.998;2023-05-10T12:44:38;15.80;99.90
15103;DHT22;7652;53.584;9.998;2023-05-10T12:47:59;15.80;99.90
15103;DHT22;7652;53.584;9.998;2023-05-10T12:51:22;16.00;99.90
15103;DHT22;7652;53.584;9.998;2023-05-10T12:54:43;16.10;99.90
15103;DHT22;7652;53.584;9.998;2023-05-10T12:58:05;16.30;99.90
15103;DHT22;7652;53.584;9.998;2023-05-10T13:01:26;16.40;99.90
15103;DHT22;7652;53.584;9.998;2023-05-10T13:04:48;16.70;99.90
15103;DHT22;7652;53.584;9.998;2023-05-10T13:08:11;16.60;99.90
15103;DHT22;7652;53.584;9.998;2023-05-10T13:11:32;16.80;99.90
15103;DHT22;7652;53.584;9.998;2023-05-10T13:14:54;16.70;99.90
15103;DHT22;7652;53.584;9.998;2023-05-10T13:18:15;16.70;99.90
15103;DHT22;7652;53.584;9.998;2023-05-10T13:21:37;16.90;99.90
15103;DHT22;7652;53.584;9.998;2023-05-10T13:24:59;17.00;99.90
15103;DHT22;7652;53.584;9.998;2023-05-10T13:28:21;17.00;99.90
15103;DHT22;7652;53.584;9.998;2023-05-10T13:31:43;16.90;99.90
15103;DHT22;7652;53.584;9.998;2023-05-10T13:35:05;16.90;99.90
15103;DHT22;7652;53.584;9.998;2023-05-10T13:38:26;17.00;99.90
15103;DHT22;7652;53.584;9.998;2023-05-10T13:41:49;17.10;99.90
15103;DHT22;7652;53.584;9.998;2023-05-10T13:45:12;17.30;99.90
15103;DHT22;7652;53.584;9.998;2023-05-10T13:48:35;17.20;99.90
15103;DHT22;7652;53.584;9.998;2023-05-10T13:51:58;17.20;99.90
15103;DHT22;7652;53.584;9.998;2023-05-10T13:55:21;17.20;99.90
15103;DHT22;7652;53.584;9.998;2023-05-10T13:58:44;17.10;99.90
15103;DHT22;7652;53.584;9.998;2023-05-10T14:02:06;17.10;99.90
15103;DHT22;7652;53.584;9.998;2023-05-10T14:05:28;17.20;99.90
15103;DHT22;7652;53.584;9.998;2023-05-10T14:08:50;17.20;99.90
15103;DHT22;7652;53.584;9.998;2023-05-10T14:12:11;17.00;99.90
15103;DHT22;7652;53.584;9.998;2023-05-10T14:15:36;17.00;99.90
15103;DHT22;7652;53.584;9.998;2023-05-10T14:18:57;17.20;99.90
15103;DHT22;7652;53.584;9.998;2023-05-10T14:22:19;17.30;99.90
15103;DHT22;7652;53.584;9.998;2023-05-10T14:25:40;17.30;99.90
15103;DHT22;7652;53.584;9.998;2023-05-10T14:29:02;17.60;99.90
15103;DHT22;7652;53.584;9.998;2023-05-10T14:32:25;17.50;99.90
15103;DHT22;7652;53.584;9.998;2023-05-10T14:35:47;17.50;99.90
15103;DHT22;7652;53.584;9.998;2023-05-10T14:39:09;17.50;99.90
15103;DHT22;7652;53.584;9.998;2023-05-10T14:42:33;17.60;99.90
15103;DHT22;7652;53.584;9.998;2023-05-10T14:45:54;17.50;99.90
15103;DHT22;7652;53.584;9.998;2023-05-10T14:49:17;17.60;99.90
15103;DHT22;7652;53.584;9.998;2023-05-10T14:52:38;17.50;99.90
15103;DHT22;7652;53.584;9.998;2023-05-10T14:56:00;17.50;99.90
15103;DHT22;7652;53.584;9.998;2023-05-10T14:59:21;17.30;99.90
15103;DHT22;7652;53.584;9.998;2023-05-10T15:02:43;17.40;99.90
15103;DHT22;7652;53.584;9.998;2023-05-10T15:06:07;17.50;99.90
15103;DHT22;7652;53.584;9.998;2023-05-10T15:09:29;17.30;99.90
15103;DHT22;7652;53.584;9.998;2023-05-10T15:12:50;17.20;99.90
15103;DHT22;7652;53.584;9.998;2023-05-10T15:16:11;17.20;99.90
15103;DHT22;7652;53.584;9.998;2023-05-10T15:19:33;17.10;99.90
15103;DHT22;7652;53.584;9.998;2023-05-10T15:22:55;17.20;99.90
15103;DHT22;7652;53.584;9.998;2023-05-10T15:26:17;17.20;99.90
15103;DHT22;7652;53.584;9.998;2023-05-10T15:29:38;17.30;99.90
15103;DHT22;7652;53.584;9.998;2023-05-10T15:33:00;17.50;99.90
15103;DHT22;7652;53.584;9.998;2023-05-10T15:36:22;17.50;99.90
15103;DHT22;7652;53.584;9.998;2023-05-10T15:39:45;17.60;99.90
15103;DHT22;7652;53.584;9.998;2023-05-10T15:43:07;17.70;99.90
15103;DHT22;7652;53.584;9.998;2023-05-10T15:46:28;17.70;99.90
15103;DHT22;7652;53.584;9.998;2023-05-10T15:49:50;17.70;99.90
15103;DHT22;7652;53.584;9.998;2023-05-10T15:53:12;17.80;99.90
15103;DHT22;7652;53.584;9.998;2023-05-10T15:56:35;17.50;99.90
15103;DHT22;7652;53.584;9.998;2023-05-10T15:59:57;17.40;99.90
15103;DHT22;7652;53.584;9.998;2023-05-10T16:03:18;17.30;99.90
15103;DHT22;7652;53.584;9.998;2023-05-10T16:06:40;17.30;99.90
15103;DHT22;7652;53.584;9.998;2023-05-10T16:10:02;17.30;99.90
15103;DHT22;7652;53.584;9.998;2023-05-10T16:13:27;17.20;99.90
15103;DHT22;7652;53.584;9.998;2023-05-10T16:16:49;17.10;99.90
15103;DHT22;7652;53.584;9.998;2023-05-10T16:20:11;16.70;99.90
15103;DHT22;7652;53.584;9.998;2023-05-10T16:23:32;16.30;99.90
15103;DHT22;7652;53.584;9.998;2023-05-10T16:26:53;16.00;99.90
15103;DHT22;7652;53.584;9.998;2023-05-10T16:30:16;15.90;99.90
15103;DHT22;7652;53.584;9.998;2023-05-10T16:33:37;15.80;99.90
15103;DHT22;7652;53.584;9.998;2023-05-10T16:36:59;15.60;99.90
15103;DHT22;7652;53.584;9.998;2023-05-10T16:40:20;15.70;99.90
15103;DHT22;7652;53.584;9.998;2023-05-10T16:43:43;15.70;99.90
15103;DHT22;7652;53.584;9.998;2023-05-10T16:47:06;15.70;99.90
15103;DHT22;7652;53.584;9.998;2023-05-10T16:50:27;15.80;99.90
15103;DHT22;7652;53.584;9.998;2023-05-10T16:53:48;15.80;99.90
15103;DHT22;7652;53.584;9.998;2023-05-10T16:57:10;15.80;99.90
15103;DHT22;7652;53.584;9.998;2023-05-10T17:00:31;15.70;99.90
15103;DHT22;7652;53.584;9.998;2023-05-10T17:03:54;15.70;99.90
15103;DHT22;7652;53.584;9.998;2023-05-10T17:07:15;15.80;99.90
15103;DHT22;7652;53.584;9.998;2023-05-10T17:10:38;15.80;99.90
15103;DHT22;7652;53.584;9.998;2023-05-10T17:14:00;15.80;99.90
15103;DHT22;7652;53.584;9.998;2023-05-10T17:17:21;15.70;99.90
15103;DHT22;7652;53.584;9.998;2023-05-10T17:20:45;15.70;99.90
15103;DHT22;7652;53.584;9.998;2023-05-10T17:24:07;15.70;99.90
15103;DHT22;7652;53.584;9.998;2023-05-10T17:27:28;15.80;99.90
15103;DHT22;7652;53.584;9.998;2023-05-10T17:30:55;15.80;99.90
15103;DHT22;7652;53.584;9.998;2023-05-10T17:34:16;15.90;99.90
15103;DHT22;7652;53.584;9.998;2023-05-10T17:37:39;15.90;99.90
15103;DHT22;7652;53.584;9.998;2023-05-10T17:41:01;15.90;99.90
15103;DHT22;7652;53.584;9.998;2023-05-10T17:44:23;15.90;99.90
15103;DHT22;7652;53.584;9.998;2023-05-10T17:47:44;15.90;99.90
15103;DHT22;7652;53.584;9.998;2023-05-10T17:51:06;15.80;99.90
15103;DHT22;7652;53.584;9.998;2023-05-10T17:54:29;15.70;99.90
15103;DHT22;7652;53.584;9.998;2023-05-10T17:57:50;15.60;99.90
15103;DHT22;7652;53.584;9.998;2023-05-10T18:01:11;15.50;99.90
15103;DHT22;7652;53.584;9.998;2023-05-10T18:04:33;15.40;99.90
15103;DHT22;7652;53.584;9.998;2023-05-10T18:07:55;15.40;99.90
15103;DHT22;7652;53.584;9.998;2023-05-10T18:11:18;15.40;99.90
15103;DHT22;7652;53.584;9.998;2023-05-10T18:14:39;15.30;99.90
15103;DHT22;7652;53.584;9.998;2023-05-10T18:18:01;15.20;99.90
15103;DHT22;7652;53.584;9.998;2023-05-10T18:21:23;15.20;99.90
15103;DHT22;7652;53.584;9.998;2023-05-10T18:24:44;15.20;99.90
15103;DHT22;7652;53.584;9.998;2023-05-10T18:28:08;15.20;99.90
15103;DHT22;7652;53.584;9.998;2023-05-10T18:31:29;15.20;99.90
15103;DHT22;7652;53.584;9.998;2023-05-10T18:34:51;15.20;99.90
15103;DHT22;7652;53.584;9.998;2023-05-10T18:38:15;15.10;99.90
15103;DHT22;7652;53.584;9.998;2023-05-10T18:41:37;15.10;99.90
15103;DHT22;7652;53.584;9.998;2023-05-10T18:45:00;15.00;99.90
15103;DHT22;7652;53.584;9.998;2023-05-10T18:48:22;14.90;99.90
15103;DHT22;7652;53.584;9.998;2023-05-10T18:51:44;14.80;99.90
15103;DHT22;7652;53.584;9.998;2023-05-10T18:55:06;14.90;99.90
15103;DHT22;7652;53.584;9.998;2023-05-10T18:58:28;14.80;99.90
15103;DHT22;7652;53.584;9.998;2023-05-10T19:01:51;14.70;99.90
15103;DHT22;7652;53.584;9.998;2023-05-10T19:05:16;14.70;99.90
15103;DHT22;7652;53.584;9.998;2023-05-10T19:08:38;14.70;99.90
15103;DHT22;7652;53.584;9.998;2023-05-10T19:12:00;14.60;99.90
15103;DHT22;7652;53.584;9.998;2023-05-10T19:15:21;14.60;99.90
15103;DHT22;7652;53.584;9.998;2023-05-10T19:18:45;14.60;99.90
15103;DHT22;7652;53.584;9.998;2023-05-10T19:22:07;14.60;99.90
15103;DHT22;7652;53.584;9.998;2023-05-10T19:25:29;14.60;99.90
15103;DHT22;7652;53.584;9.998;2023-05-10T19:28:53;14.60;99.90
15103;DHT22;7652;53.584;9.998;2023-05-10T19:32:16;14.50;99.90
15103;DHT22;7652;53.584;9.998;2023-05-10T19:35:39;14.50;99.90
15103;DHT22;7652;53.584;9.998;2023-05-10T19:39:01;14.40;99.90
15103;DHT22;7652;53.584;9.998;2023-05-10T19:42:22;14.40;99.90
15103;DHT22;7652;53.584;9.998;2023-05-10T19:45:43;14.40;99.90
15103;DHT22;7652;53.584;9.998;2023-05-10T19:49:05;14.40;99.90
15103;DHT22;7652;53.584;9.998;2023-05-10T19:52:28;14.40;99.90
15103;DHT22;7652;53.584;9.998;2023-05-10T19:55:50;14.40;99.90
15103;DHT22;7652;53.584;9.998;2023-05-10T19:59:11;14.40;99.90
15103;DHT22;7652;53.584;9.998;2023-05-10T20:02:33;14.40;99.90
15103;DHT22;7652;53.584;9.998;2023-05-10T20:05:55;14.40;99.90
15103;DHT22;7652;53.584;9.998;2023-05-10T20:09:17;14.40;99.90
15103;DHT22;7652;53.584;9.998;2023-05-10T20:12:39;14.40;99.90
15103;DHT22;7652;53.584;9.998;2023-05-10T20:16:00;14.30;99.90
15103;DHT22;7652;53.584;9.998;2023-05-10T20:19:23;14.30;99.90
15103;DHT22;7652;53.584;9.998;2023-05-10T20:22:45;14.20;99.90
15103;DHT22;7652;53.584;9.998;2023-05-10T20:26:08;14.10;99.90
15103;DHT22;7652;53.584;9.998;2023-05-10T20:29:30;14.10;99.90
15103;DHT22;7652;53.584;9.998;2023-05-10T20:32:51;14.00;99.90
15103;DHT22;7652;53.584;9.998;2023-05-10T20:36:13;14.00;99.90
15103;DHT22;7652;53.584;9.998;2023-05-10T20:39:35;14.00;99.90
15103;DHT22;7652;53.584;9.998;2023-05-10T20:42:58;14.00;99.90
15103;DHT22;7652;53.584;9.998;2023-05-10T20:46:19;14.00;99.90
15103;DHT22;7652;53.584;9.998;2023-05-10T20:49:40;14.00;99.90
15103;DHT22;7652;53.584;9.998;2023-05-10T20:53:02;13.90;99.90
15103;DHT22;7652;53.584;9.998;2023-05-10T20:56:23;13.70;99.90
15103;DHT22;7652;53.584;9.998;2023-05-10T20:59:48;13.80;99.90
15103;DHT22;7652;53.584;9.998;2023-05-10T21:03:10;13.80;99.90
15103;DHT22;7652;53.584;9.998;2023-05-10T21:06:31;13.90;99.90
15103;DHT22;7652;53.584;9.998;2023-05-10T21:09:53;13.90;99.90
15103;DHT22;7652;53.584;9.998;2023-05-10T21:13:15;13.80;99.90
15103;DHT22;7652;53.584;9.998;2023-05-10T21:16:37;13.70;99.90
15103;DHT22;7652;53.584;9.998;2023-05-10T21:19:59;13.70;99.90
15103;DHT22;7652;53.584;9.998;2023-05-10T21:23:21;13.60;99.90
15103;DHT22;7652;53.584;9.998;2023-05-10T21:26:43;13.70;99.90
15103;DHT22;7652;53.584;9.998;2023-05-10T21:30:05;13.70;99.90
15103;DHT22;7652;53.584;9.998;2023-05-10T21:33:28;13.60;99.90
15103;DHT22;7652;53.584;9.998;2023-05-10T21:36:50;13.50;99.90
15103;DHT22;7652;53.584;9.998;2023-05-10T21:40:11;13.50;99.90